Time;durP1;ratioP1;P1;durP2;ratioP2;P2;SDS_P1;SDS_P2;PMS_P1;PMS_P2;Temp;Humidity;BMP_temperature;BMP_pressure;BME280_temperature;BME280_humidity;BME280_pressure;Samples;Min_cycle;Max_cycle;Signal;HPM_P1;HPM_P2
2022/03/27 00:00:00;;;;;;;47.40;26.47;;;;;;;;;;5103072;28;20678;-72
2022/03/27 00:02:28;;;;;;;41.57;23.50;;;;;;;;;;5112913;28;20308;-72
2022/03/27 00:04:56;;;;;;;37.70;21.47;;;;;;;;;;5112314;28;20269;-71
2022/03/27 00:07:26;;;;;;;35.10;19.83;;;;;;;;;;5109953;28;20664;-72
2022/03/27 00:09:54;;;;;;;32.20;17.87;;;;;;;;;;5105905;28;20264;-71
2022/03/27 00:12:22;;;;;;;30.43;17.37;;;;;;;;;;5106020;28;20256;-73
2022/03/27 00:14:50;;;;;;;32.33;18.30;;;;;;;;;;5114600;28;20625;-72
2022/03/27 00:17:18;;;;;;;30.63;17.63;;;;;;;;;;5104364;28;20275;-71
2022/03/27 00:19:46;;;;;;;29.93;17.40;;;;;;;;;;5111600;28;20229;-71
2022/03/27 00:22:14;;;;;;;28.40;16.00;;;;;;;;;;5118155;28;20275;-71
2022/03/27 00:24:44;;;;;;;27.83;17.63;;;;;;;;;;5102976;28;20243;-72
2022/03/27 00:27:12;;;;;;;33.43;17.23;;;;;;;;;;5112898;28;20260;-73
2022/03/27 00:29:40;;;;;;;39.37;22.00;;;;;;;;;;5115229;28;20267;-73
2022/03/27 00:32:08;;;;;;;35.27;19.20;;;;;;;;;;5113953;28;20239;-73
2022/03/27 00:34:36;;;;;;;32.47;17.57;;;;;;;;;;5109990;28;20605;-73
2022/03/27 00:37:04;;;;;;;31.70;18.03;;;;;;;;;;5113664;28;20304;-72
2022/03/27 00:39:32;;;;;;;29.10;16.90;;;;;;;;;;5112599;28;20239;-72
2022/03/27 00:42:01;;;;;;;25.17;13.80;;;;;;;;;;5115102;28;20304;-73
2022/03/27 00:44:29;;;;;;;31.33;16.53;;;;;;;;;;5113998;28;20240;-73
2022/03/27 00:46:58;;;;;;;31.73;18.47;;;;;;;;;;5105540;28;20248;-73
2022/03/27 00:49:26;;;;;;;30.87;17.67;;;;;;;;;;5113629;28;20228;-73
2022/03/27 00:51:54;;;;;;;29.33;17.20;;;;;;;;;;5112748;28;20201;-73
2022/03/27 00:54:22;;;;;;;33.43;17.40;;;;;;;;;;5108169;28;20240;-72
2022/03/27 00:56:50;;;;;;;30.73;18.87;;;;;;;;;;5102235;28;20256;-72
2022/03/27 00:59:19;;;;;;;31.00;18.17;;;;;;;;;;5102482;28;20256;-73
2022/03/27 01:01:47;;;;;;;28.70;18.23;;;;;;;;;;5104736;28;20243;-73
2022/03/27 01:04:16;;;;;;;31.37;17.27;;;;;;;;;;5110011;28;20201;-73
2022/03/27 01:06:44;;;;;;;34.33;18.03;;;;;;;;;;5108540;28;20308;-72
2022/03/27 01:12:07;;;;;;;29.47;17.40;;;;;;;;;;5105329;28;20253;-72
2022/03/27 01:14:36;;;;;;;35.30;18.47;;;;;;;;;;5107072;28;20276;-73
2022/03/27 01:17:07;;;;;;;26.67;16.40;;;;;;;;;;5112144;28;20271;-72
2022/03/27 01:19:39;;;;;;;30.43;16.90;;;;;;;;;;5113597;28;20251;-73
2022/03/27 01:22:09;;;;;;;44.10;21.47;;;;;;;;;;5112662;28;20315;-72
2022/03/27 01:24:37;;;;;;;33.07;20.10;;;;;;;;;;5109684;28;20693;-73
2022/03/27 01:27:06;;;;;;;30.70;17.67;;;;;;;;;;5109229;28;20316;-73
2022/03/27 01:29:34;;;;;;;33.87;17.10;;;;;;;;;;5104588;28;20279;-73
2022/03/27 01:32:03;;;;;;;25.77;15.93;;;;;;;;;;5113008;28;20226;-73
2022/03/27 01:34:32;;;;;;;27.53;16.87;;;;;;;;;;5110986;28;20204;-73
2022/03/27 01:37:02;;;;;;;27.77;17.10;;;;;;;;;;5110223;28;20304;-73
2022/03/27 01:39:31;;;;;;;25.00;15.33;;;;;;;;;;5102937;28;20283;-72
2022/03/27 01:41:59;;;;;;;24.03;15.77;;;;;;;;;;5101320;28;20250;-73
2022/03/27 01:44:27;;;;;;;24.60;16.03;;;;;;;;;;5101112;28;20623;-73
2022/03/27 01:46:57;;;;;;;23.33;14.83;;;;;;;;;;5113872;28;20300;-72
2022/03/27 01:49:26;;;;;;;23.07;14.60;;;;;;;;;;5105061;28;20201;-72
2022/03/27 01:51:54;;;;;;;22.33;14.93;;;;;;;;;;5101611;28;20601;-72
2022/03/27 01:54:22;;;;;;;31.50;15.27;;;;;;;;;;5100667;28;20204;-72
2022/03/27 01:56:52;;;;;;;27.70;15.13;;;;;;;;;;5111966;28;20303;-72
2022/03/27 01:59:21;;;;;;;22.87;14.83;;;;;;;;;;5110207;28;20260;-72
2022/03/27 02:01:49;;;;;;;25.53;14.57;;;;;;;;;;5109791;28;20231;-72
2022/03/27 02:04:17;;;;;;;21.63;14.80;;;;;;;;;;5110056;28;20206;-72
2022/03/27 02:06:45;;;;;;;27.50;16.20;;;;;;;;;;5111323;28;20322;-72
2022/03/27 02:09:13;;;;;;;21.80;14.40;;;;;;;;;;5113132;28;20232;-72
2022/03/27 02:11:42;;;;;;;26.83;15.63;;;;;;;;;;5112610;28;20220;-73
2022/03/27 02:14:11;;;;;;;26.33;15.87;;;;;;;;;;5112554;28;20232;-72
2022/03/27 02:16:40;;;;;;;23.13;14.90;;;;;;;;;;5112388;28;20308;-72
2022/03/27 02:19:09;;;;;;;22.67;14.50;;;;;;;;;;5104315;28;20208;-72
2022/03/27 02:21:38;;;;;;;24.50;15.27;;;;;;;;;;5108611;28;20232;-73
2022/03/27 02:24:08;;;;;;;24.67;15.37;;;;;;;;;;5104140;28;20638;-72
2022/03/27 02:26:36;;;;;;;23.03;14.50;;;;;;;;;;5111017;28;20640;-73
2022/03/27 02:29:04;;;;;;;23.43;14.23;;;;;;;;;;5113972;28;20300;-72
2022/03/27 02:31:33;;;;;;;24.53;14.37;;;;;;;;;;5111399;28;20275;-73
2022/03/27 02:34:01;;;;;;;23.43;14.07;;;;;;;;;;5106065;28;20251;-73
2022/03/27 02:36:29;;;;;;;26.63;15.20;;;;;;;;;;5113103;28;20307;-73
2022/03/27 02:38:57;;;;;;;25.67;16.23;;;;;;;;;;5107060;28;20276;-73
2022/03/27 02:41:25;;;;;;;24.23;15.50;;;;;;;;;;5109541;28;20228;-72
2022/03/27 02:43:53;;;;;;;27.83;15.20;;;;;;;;;;5115984;28;20664;-73
2022/03/27 02:46:21;;;;;;;28.93;16.13;;;;;;;;;;5112124;28;20300;-72
2022/03/27 02:48:50;;;;;;;26.20;16.00;;;;;;;;;;5106725;28;20281;-72
2022/03/27 02:51:18;;;;;;;26.63;15.97;;;;;;;;;;5106826;28;20266;-72
2022/03/27 02:53:46;;;;;;;24.70;15.37;;;;;;;;;;5115938;28;20713;-73
2022/03/27 02:56:15;;;;;;;27.93;16.40;;;;;;;;;;5114854;28;20256;-73
2022/03/27 02:58:43;;;;;;;26.33;15.47;;;;;;;;;;5109602;28;20260;-72
2022/03/27 03:01:12;;;;;;;26.33;15.87;;;;;;;;;;5106164;28;20740;-72
2022/03/27 03:03:42;;;;;;;27.10;16.90;;;;;;;;;;5108662;28;20252;-72
2022/03/27 03:06:11;;;;;;;29.20;16.67;;;;;;;;;;5116287;28;20252;-72
2022/03/27 03:08:39;;;;;;;27.93;16.50;;;;;;;;;;5108795;28;20601;-72
2022/03/27 03:11:08;;;;;;;32.10;17.47;;;;;;;;;;5115707;28;20200;-72
2022/03/27 03:13:36;;;;;;;34.63;19.10;;;;;;;;;;5107017;28;20189;-72
2022/03/27 03:16:05;;;;;;;28.83;17.30;;;;;;;;;;5110632;28;20308;-72
2022/03/27 03:18:34;;;;;;;26.43;16.93;;;;;;;;;;5106615;28;20265;-72
2022/03/27 03:21:02;;;;;;;28.90;17.43;;;;;;;;;;5105782;28;20229;-72
2022/03/27 03:23:32;;;;;;;27.07;16.53;;;;;;;;;;5114951;28;20259;-72
2022/03/27 03:26:00;;;;;;;24.97;15.70;;;;;;;;;;5115185;28;20217;-72
2022/03/27 03:28:34;;;;;;;29.00;16.47;;;;;;;;;;5113061;28;20209;-72
2022/03/27 03:31:02;;;;;;;31.57;16.90;;;;;;;;;;5110541;28;20236;-73
2022/03/27 03:33:30;;;;;;;27.67;16.23;;;;;;;;;;5106493;28;20203;-72
2022/03/27 03:35:58;;;;;;;26.40;16.07;;;;;;;;;;5114076;28;20218;-72
2022/03/27 03:38:26;;;;;;;27.90;16.37;;;;;;;;;;5104122;28;20292;-72
2022/03/27 03:40:56;;;;;;;30.80;17.07;;;;;;;;;;5115187;28;20236;-72
2022/03/27 03:43:24;;;;;;;26.30;16.70;;;;;;;;;;5114828;28;20313;-72
2022/03/27 03:45:52;;;;;;;26.40;16.60;;;;;;;;;;5111624;28;20300;-72
2022/03/27 03:48:20;;;;;;;26.97;16.93;;;;;;;;;;5106457;28;20215;-72
2022/03/27 03:50:48;;;;;;;22.33;16.23;;;;;;;;;;5103356;28;20252;-72
2022/03/27 03:53:16;;;;;;;26.57;16.37;;;;;;;;;;5112880;28;20210;-72
2022/03/27 03:55:45;;;;;;;23.43;15.63;;;;;;;;;;5112368;28;20655;-72
2022/03/27 03:58:14;;;;;;;24.93;16.33;;;;;;;;;;5103441;27;20233;-72
2022/03/27 04:00:43;;;;;;;25.57;15.97;;;;;;;;;;5111062;28;20280;-72
2022/03/27 04:03:11;;;;;;;23.53;16.17;;;;;;;;;;5113934;28;20220;-72
2022/03/27 04:05:39;;;;;;;27.77;15.70;;;;;;;;;;5113414;28;20221;-72
2022/03/27 04:08:07;;;;;;;27.40;15.57;;;;;;;;;;5103226;28;20201;-72
2022/03/27 04:10:35;;;;;;;30.40;16.67;;;;;;;;;;5114201;28;20232;-72
2022/03/27 04:13:03;;;;;;;24.87;16.97;;;;;;;;;;5106986;28;20197;-72
2022/03/27 04:15:33;;;;;;;23.07;15.13;;;;;;;;;;5114722;28;20244;-72
2022/03/27 04:18:21;;;;;;;25.73;15.97;;;;;;;;;;5114857;28;20197;-72
2022/03/27 04:20:49;;;;;;;26.57;16.10;;;;;;;;;;5109465;28;20276;-72
2022/03/27 04:23:17;;;;;;;24.50;15.93;;;;;;;;;;5102271;28;20296;-72
2022/03/27 04:25:45;;;;;;;25.67;15.60;;;;;;;;;;5116131;28;20288;-72
2022/03/27 04:28:13;;;;;;;27.47;15.90;;;;;;;;;;5103309;28;20281;-72
2022/03/27 04:30:42;;;;;;;27.87;16.37;;;;;;;;;;5113466;28;20703;-72
2022/03/27 04:33:10;;;;;;;27.27;16.77;;;;;;;;;;5106105;28;20317;-72
2022/03/27 04:35:39;;;;;;;27.17;16.27;;;;;;;;;;5106500;28;20312;-72
2022/03/27 04:38:07;;;;;;;24.50;16.23;;;;;;;;;;5112379;28;20600;-72
2022/03/27 04:40:35;;;;;;;24.90;16.37;;;;;;;;;;5101034;28;20237;-72
2022/03/27 04:43:03;;;;;;;24.60;16.73;;;;;;;;;;5105183;28;20320;-72
2022/03/27 04:45:31;;;;;;;25.87;16.20;;;;;;;;;;5108040;28;20285;-72
2022/03/27 04:48:01;;;;;;;25.43;15.97;;;;;;;;;;5111005;28;20280;-72
2022/03/27 04:50:29;;;;;;;22.87;16.13;;;;;;;;;;5106644;28;20259;-72
2022/03/27 04:52:57;;;;;;;25.77;17.00;;;;;;;;;;5106550;28;20640;-72
2022/03/27 04:55:25;;;;;;;25.37;16.10;;;;;;;;;;5101998;28;20277;-72
2022/03/27 04:57:53;;;;;;;23.13;15.87;;;;;;;;;;5101772;28;20289;-72
2022/03/27 05:00:21;;;;;;;26.77;16.47;;;;;;;;;;5114983;28;20260;-72
2022/03/27 05:02:49;;;;;;;26.67;16.27;;;;;;;;;;5112706;28;20631;-72
2022/03/27 05:05:18;;;;;;;23.70;16.17;;;;;;;;;;5109917;28;20225;-72
2022/03/27 05:07:46;;;;;;;26.13;16.23;;;;;;;;;;5108999;28;20227;-72
2022/03/27 05:10:14;;;;;;;23.80;16.07;;;;;;;;;;5112863;28;20268;-72
2022/03/27 05:12:43;;;;;;;23.23;15.27;;;;;;;;;;5114027;28;20236;-72
2022/03/27 05:15:11;;;;;;;23.70;15.10;;;;;;;;;;5109469;28;20684;-72
2022/03/27 05:17:46;;;;;;;29.37;16.67;;;;;;;;;;5107504;28;20319;-72
2022/03/27 05:20:14;;;;;;;24.50;15.90;;;;;;;;;;5102501;28;20284;-72
2022/03/27 05:22:44;;;;;;;22.10;14.80;;;;;;;;;;5115151;28;20229;-72
2022/03/27 05:25:12;;;;;;;22.50;14.63;;;;;;;;;;5104011;28;20260;-72
2022/03/27 05:27:44;;;;;;;24.40;16.13;;;;;;;;;;5110020;28;20356;-72
2022/03/27 05:30:12;;;;;;;28.50;17.10;;;;;;;;;;5110394;28;20266;-72
2022/03/27 05:32:40;;;;;;;24.63;16.43;;;;;;;;;;5117629;28;20288;-72
2022/03/27 05:35:09;;;;;;;27.30;16.80;;;;;;;;;;5104202;28;20252;-72
2022/03/27 05:37:37;;;;;;;26.60;15.83;;;;;;;;;;5112434;27;20224;-73
2022/03/27 05:40:08;;;;;;;26.13;17.17;;;;;;;;;;5115049;28;20204;-73
2022/03/27 05:42:37;;;;;;;26.20;16.03;;;;;;;;;;5111838;28;20723;-72
2022/03/27 05:45:05;;;;;;;24.77;16.67;;;;;;;;;;5112164;28;20304;-72
2022/03/27 05:47:34;;;;;;;23.87;16.90;;;;;;;;;;5112702;28;20257;-72
2022/03/27 05:50:02;;;;;;;28.80;16.83;;;;;;;;;;5112555;28;20232;-72
2022/03/27 05:52:30;;;;;;;28.53;16.53;;;;;;;;;;5112844;28;20332;-73
2022/03/27 05:54:58;;;;;;;27.77;16.57;;;;;;;;;;5114218;28;20258;-72
2022/03/27 05:57:28;;;;;;;26.80;17.00;;;;;;;;;;5114672;28;20723;-73
2022/03/27 05:59:56;;;;;;;22.13;15.63;;;;;;;;;;5113559;28;20240;-73
2022/03/27 06:02:24;;;;;;;27.30;17.53;;;;;;;;;;5113544;28;20196;-72
2022/03/27 06:04:52;;;;;;;25.57;17.57;;;;;;;;;;5113678;28;20727;-72
2022/03/27 06:07:21;;;;;;;28.47;17.80;;;;;;;;;;5114986;28;20790;-73
2022/03/27 06:09:49;;;;;;;28.07;16.40;;;;;;;;;;5112896;28;20660;-73
2022/03/27 06:12:17;;;;;;;24.83;16.27;;;;;;;;;;5117316;28;20192;-72
2022/03/27 06:14:48;;;;;;;26.23;16.27;;;;;;;;;;5116990;28;20648;-73
2022/03/27 06:17:16;;;;;;;26.13;16.93;;;;;;;;;;5115168;28;20285;-73
2022/03/27 06:19:44;;;;;;;33.67;18.00;;;;;;;;;;5116771;28;20202;-73
2022/03/27 06:22:12;;;;;;;25.43;16.60;;;;;;;;;;5114410;28;20292;-72
2022/03/27 06:24:40;;;;;;;29.67;16.83;;;;;;;;;;5109193;28;20225;-72
2022/03/27 06:27:08;;;;;;;24.73;15.87;;;;;;;;;;5112535;28;20256;-72
2022/03/27 06:29:36;;;;;;;25.97;16.67;;;;;;;;;;5114211;28;20228;-72
2022/03/27 06:32:06;;;;;;;24.37;15.40;;;;;;;;;;5116353;28;20205;-73
2022/03/27 06:34:35;;;;;;;31.37;17.53;;;;;;;;;;5116335;28;20276;-72
2022/03/27 06:37:03;;;;;;;28.33;16.80;;;;;;;;;;5116594;28;20307;-73
2022/03/27 06:39:31;;;;;;;29.33;18.20;;;;;;;;;;5116658;28;20231;-72
2022/03/27 06:41:59;;;;;;;26.80;17.90;;;;;;;;;;5112149;28;20327;-72
2022/03/27 06:44:27;;;;;;;25.27;15.57;;;;;;;;;;5116149;28;20254;-71
2022/03/27 06:46:55;;;;;;;28.60;17.23;;;;;;;;;;5112061;28;20248;-73
2022/03/27 06:49:30;;;;;;;31.63;16.63;;;;;;;;;;5113429;28;20731;-72
2022/03/27 06:51:58;;;;;;;27.90;17.90;;;;;;;;;;5109024;28;20652;-73
2022/03/27 06:54:26;;;;;;;32.93;19.73;;;;;;;;;;5116834;28;20217;-72
2022/03/27 06:56:57;;;;;;;29.77;19.43;;;;;;;;;;5115394;28;20252;-73
2022/03/27 06:59:25;;;;;;;23.33;16.23;;;;;;;;;;5113614;28;20228;-73
2022/03/27 07:04:40;;;;;;;29.27;19.80;;;;;;;;;;5113299;28;20225;-72
2022/03/27 07:07:08;;;;;;;29.37;18.97;;;;;;;;;;5115404;28;20217;-73
2022/03/27 07:09:36;;;;;;;32.10;18.50;;;;;;;;;;5115112;28;20609;-73
2022/03/27 07:12:08;;;;;;;30.07;18.13;;;;;;;;;;5114412;28;20228;-73
2022/03/27 07:14:36;;;;;;;28.20;18.27;;;;;;;;;;5113111;28;20534;-73
2022/03/27 07:17:04;;;;;;;28.57;17.30;;;;;;;;;;5116798;28;20579;-73
2022/03/27 07:19:34;;;;;;;27.47;17.70;;;;;;;;;;5118933;28;20302;-73
2022/03/27 07:22:04;;;;;;;30.93;17.00;;;;;;;;;;5115635;28;20329;-76
2022/03/27 07:24:32;;;;;;;26.73;17.33;;;;;;;;;;5116084;28;20254;-73
2022/03/27 07:27:00;;;;;;;27.53;18.00;;;;;;;;;;5117279;28;20245;-74
2022/03/27 07:29:30;;;;;;;26.87;17.83;;;;;;;;;;5109054;27;20256;-74
2022/03/27 07:31:58;;;;;;;30.20;18.47;;;;;;;;;;5118830;28;20264;-75
2022/03/27 07:34:33;;;;;;;26.83;19.13;;;;;;;;;;5113266;28;20667;-73
2022/03/27 07:37:01;;;;;;;33.00;19.37;;;;;;;;;;5110933;28;20311;-76
2022/03/27 07:39:30;;;;;;;28.63;17.97;;;;;;;;;;5119822;28;20284;-75
2022/03/27 07:41:58;;;;;;;25.97;17.93;;;;;;;;;;5111021;28;20219;-75
2022/03/27 07:44:26;;;;;;;30.77;18.67;;;;;;;;;;5107512;28;20284;-79
2022/03/27 07:46:58;;;;;;;35.07;19.37;;;;;;;;;;5110599;28;20225;-73
2022/03/27 07:49:27;;;;;;;32.53;18.90;;;;;;;;;;5109541;28;20240;-74
2022/03/27 07:51:55;;;;;;;28.07;19.20;;;;;;;;;;5109322;28;20289;-74
2022/03/27 07:54:23;;;;;;;29.67;19.67;;;;;;;;;;5103939;28;20289;-74
2022/03/27 07:56:52;;;;;;;32.67;20.83;;;;;;;;;;5109750;28;20299;-74
2022/03/27 07:59:21;;;;;;;29.77;20.10;;;;;;;;;;5102748;28;20808;-74
2022/03/27 08:01:49;;;;;;;31.33;20.73;;;;;;;;;;5112720;27;20298;-74
2022/03/27 08:04:17;;;;;;;33.30;21.27;;;;;;;;;;5117425;28;20201;-74
2022/03/27 08:06:47;;;;;;;30.50;21.90;;;;;;;;;;5115755;28;20259;-74
2022/03/27 08:09:15;;;;;;;34.10;21.27;;;;;;;;;;5111356;28;20197;-73
2022/03/27 08:11:43;;;;;;;28.83;20.40;;;;;;;;;;5106663;28;20206;-74
2022/03/27 08:14:12;;;;;;;30.47;21.30;;;;;;;;;;5112535;28;20268;-74
2022/03/27 08:16:40;;;;;;;31.80;22.10;;;;;;;;;;5114942;28;20751;-73
2022/03/27 08:19:08;;;;;;;33.30;22.47;;;;;;;;;;5115188;28;20606;-73
2022/03/27 08:21:39;;;;;;;32.50;23.90;;;;;;;;;;5115686;28;20636;-75
2022/03/27 08:24:07;;;;;;;36.57;24.33;;;;;;;;;;5106341;28;20626;-74
2022/03/27 08:29:23;;;;;;;32.80;22.13;;;;;;;;;;5101390;28;20244;-73
2022/03/27 08:31:51;;;;;;;36.17;22.30;;;;;;;;;;5110445;28;20639;-73
2022/03/27 08:34:20;;;;;;;38.13;22.40;;;;;;;;;;5116371;28;20197;-73
2022/03/27 08:36:48;;;;;;;32.47;20.53;;;;;;;;;;5110086;28;20308;-73
2022/03/27 08:39:17;;;;;;;33.80;21.50;;;;;;;;;;5117824;28;20228;-73
2022/03/27 08:41:45;;;;;;;35.40;22.03;;;;;;;;;;5099933;28;20276;-72
2022/03/27 08:44:14;;;;;;;31.80;21.70;;;;;;;;;;5106090;28;20229;-73
2022/03/27 08:46:43;;;;;;;37.93;22.67;;;;;;;;;;5106752;28;20249;-73
2022/03/27 08:49:12;;;;;;;33.97;21.53;;;;;;;;;;5116237;28;20286;-73
2022/03/27 08:51:41;;;;;;;38.23;22.50;;;;;;;;;;5112410;28;20702;-74
2022/03/27 08:54:14;;;;;;;35.73;22.40;;;;;;;;;;5114977;28;20640;-73
2022/03/27 08:56:46;;;;;;;40.27;21.47;;;;;;;;;;5112872;28;20299;-73
2022/03/27 08:59:14;;;;;;;36.17;21.40;;;;;;;;;;5114872;28;20252;-73
2022/03/27 09:01:44;;;;;;;30.63;19.97;;;;;;;;;;5113734;28;20642;-74
2022/03/27 09:04:14;;;;;;;45.53;22.93;;;;;;;;;;5115736;28;20659;-73
2022/03/27 09:06:42;;;;;;;37.53;22.20;;;;;;;;;;5110204;28;20255;-73
2022/03/27 09:09:10;;;;;;;37.80;21.77;;;;;;;;;;5117586;28;20243;-73
2022/03/27 09:11:38;;;;;;;36.27;21.60;;;;;;;;;;5115499;28;20275;-73
2022/03/27 09:14:07;;;;;;;38.00;20.57;;;;;;;;;;5109765;28;20232;-73
2022/03/27 09:16:50;;;;;;;35.80;20.23;;;;;;;;;;5117472;28;20262;-69
2022/03/27 09:19:31;;;;;;;36.77;20.43;;;;;;;;;;5116723;28;20231;-71
2022/03/27 09:22:00;;;;;;;30.40;18.53;;;;;;;;;;5115478;28;20205;-71
2022/03/27 09:24:34;;;;;;;35.60;19.17;;;;;;;;;;5111013;28;20204;-70
2022/03/27 09:27:02;;;;;;;35.07;20.57;;;;;;;;;;5114722;28;20245;-72
2022/03/27 09:29:30;;;;;;;40.40;23.30;;;;;;;;;;5114048;28;20228;-71
2022/03/27 09:31:58;;;;;;;41.83;22.67;;;;;;;;;;5116207;28;20284;-73
2022/03/27 09:34:27;;;;;;;33.17;19.63;;;;;;;;;;5116551;28;20196;-73
2022/03/27 09:36:56;;;;;;;32.00;19.57;;;;;;;;;;5108980;28;20248;-73
2022/03/27 09:39:24;;;;;;;40.10;22.33;;;;;;;;;;5105758;28;20224;-73
2022/03/27 09:41:54;;;;;;;36.10;21.17;;;;;;;;;;5102489;28;20229;-73
2022/03/27 09:44:25;;;;;;;37.47;20.10;;;;;;;;;;5117272;28;20707;-73
2022/03/27 09:46:54;;;;;;;37.07;19.80;;;;;;;;;;5116739;28;20308;-73
2022/03/27 09:49:23;;;;;;;35.43;19.63;;;;;;;;;;5116359;28;20295;-73
2022/03/27 09:51:56;;;;;;;40.33;23.23;;;;;;;;;;5115604;28;20247;-73
2022/03/27 09:54:25;;;;;;;40.67;22.50;;;;;;;;;;5112627;28;20236;-73
2022/03/27 09:56:53;;;;;;;42.03;21.97;;;;;;;;;;5105366;28;20300;-73
2022/03/27 09:59:29;;;;;;;39.43;21.57;;;;;;;;;;5105085;28;20720;-73
2022/03/27 10:02:16;;;;;;;45.57;21.87;;;;;;;;;;5117300;28;20277;-72
2022/03/27 10:05:01;;;;;;;42.77;20.77;;;;;;;;;;5110847;28;20257;-73
2022/03/27 10:07:34;;;;;;;38.80;20.63;;;;;;;;;;5101543;28;20224;-73
2022/03/27 10:10:03;;;;;;;39.83;22.43;;;;;;;;;;5115669;28;20247;-73
2022/03/27 10:12:33;;;;;;;40.37;20.37;;;;;;;;;;5114631;28;20292;-73
2022/03/27 10:15:03;;;;;;;41.20;21.77;;;;;;;;;;5102270;28;20248;-73
2022/03/27 10:17:32;;;;;;;37.83;20.53;;;;;;;;;;5115085;28;20196;-73
2022/03/27 10:20:02;;;;;;;43.40;21.73;;;;;;;;;;5116889;28;20235;-73
2022/03/27 10:22:30;;;;;;;42.77;21.43;;;;;;;;;;5100069;28;20653;-73
2022/03/27 10:25:02;;;;;;;39.63;20.13;;;;;;;;;;5111137;28;20198;-73
2022/03/27 10:27:31;;;;;;;44.67;20.77;;;;;;;;;;5102518;28;20229;-73
2022/03/27 10:30:00;;;;;;;38.33;21.33;;;;;;;;;;5106495;28;20229;-73
2022/03/27 10:32:28;;;;;;;37.10;20.90;;;;;;;;;;5107667;28;20205;-73
2022/03/27 10:35:05;;;;;;;31.53;18.40;;;;;;;;;;5105443;28;20229;-73
2022/03/27 10:37:35;;;;;;;30.97;17.47;;;;;;;;;;5103489;28;20664;-75
2022/03/27 10:40:08;;;;;;;34.33;18.53;;;;;;;;;;5112122;28;20264;-74
2022/03/27 10:42:41;;;;;;;36.20;19.53;;;;;;;;;;5115349;28;20221;-74
2022/03/27 10:45:11;;;;;;;30.27;16.60;;;;;;;;;;5115047;28;20205;-77
2022/03/27 10:47:39;;;;;;;32.60;17.50;;;;;;;;;;5113482;28;20311;-75
2022/03/27 10:50:23;;;;;;;36.70;17.67;;;;;;;;;;5112180;28;20284;-75
2022/03/27 10:53:07;;;;;;;31.70;17.10;;;;;;;;;;5116813;28;20240;-74
2022/03/27 10:55:38;;;;;;;32.63;16.83;;;;;;;;;;5116351;28;20252;-74
2022/03/27 10:58:21;;;;;;;32.27;16.07;;;;;;;;;;5116716;28;20308;-74
2022/03/27 11:00:49;;;;;;;27.10;15.50;;;;;;;;;;5118609;28;20228;-74
2022/03/27 11:03:32;;;;;;;26.27;15.40;;;;;;;;;;5117833;28;20678;-74
2022/03/27 11:06:00;;;;;;;33.57;15.90;;;;;;;;;;5117215;28;20717;-74
2022/03/27 11:08:47;;;;;;;27.23;15.07;;;;;;;;;;5117467;28;20678;-74
2022/03/27 11:11:33;;;;;;;28.67;15.20;;;;;;;;;;5110203;28;20202;-78
2022/03/27 11:14:03;;;;;;;26.50;15.47;;;;;;;;;;5119550;28;20695;-73
2022/03/27 11:16:33;;;;;;;24.73;14.20;;;;;;;;;;5118116;28;20228;-76
2022/03/27 11:19:01;;;;;;;29.70;16.60;;;;;;;;;;5114485;28;20251;-76
2022/03/27 11:21:47;;;;;;;29.87;15.10;;;;;;;;;;5114581;28;20233;-78
2022/03/27 11:24:27;;;;;;;27.70;15.40;;;;;;;;;;5115816;28;20207;-75
2022/03/27 11:26:57;;;;;;;24.13;14.47;;;;;;;;;;5116426;28;20679;-79
2022/03/27 11:29:27;;;;;;;25.17;14.33;;;;;;;;;;5115603;28;20293;-78
2022/03/27 11:32:07;;;;;;;30.87;16.97;;;;;;;;;;5117598;28;20248;-78
2022/03/27 11:34:35;;;;;;;24.60;14.90;;;;;;;;;;5117280;28;20197;-79
2022/03/27 11:37:22;;;;;;;30.77;15.03;;;;;;;;;;5118891;28;20311;-81
2022/03/27 11:39:51;;;;;;;27.80;14.77;;;;;;;;;;5117748;28;20207;-71
2022/03/27 11:42:27;;;;;;;22.83;14.07;;;;;;;;;;5115276;28;20269;-72
2022/03/27 11:45:13;;;;;;;31.03;14.87;;;;;;;;;;5117951;28;20280;-73
2022/03/27 11:47:41;;;;;;;24.23;14.07;;;;;;;;;;5117523;28;20243;-73
2022/03/27 11:50:18;;;;;;;25.83;14.83;;;;;;;;;;5114931;28;20287;-71
2022/03/27 11:52:46;;;;;;;24.67;14.17;;;;;;;;;;5115468;28;20204;-70
2022/03/27 11:55:14;;;;;;;26.20;13.43;;;;;;;;;;5111078;28;20237;-71
2022/03/27 11:57:43;;;;;;;23.43;13.87;;;;;;;;;;5103328;28;20233;-71
2022/03/27 12:00:14;;;;;;;25.33;14.67;;;;;;;;;;5116304;28;20271;-71
2022/03/27 12:02:43;;;;;;;25.90;14.13;;;;;;;;;;5111048;28;20280;-71
2022/03/27 12:05:12;;;;;;;26.07;14.70;;;;;;;;;;5110811;28;20200;-71
2022/03/27 12:07:51;;;;;;;26.90;14.13;;;;;;;;;;5114462;28;20221;-70
2022/03/27 12:10:20;;;;;;;26.67;14.37;;;;;;;;;;5114038;28;20228;-72
2022/03/27 12:12:58;;;;;;;28.83;15.23;;;;;;;;;;5109471;28;20707;-74
2022/03/27 12:15:41;;;;;;;26.50;15.00;;;;;;;;;;5109021;28;20308;-74
2022/03/27 12:18:12;;;;;;;26.40;14.30;;;;;;;;;;5109535;28;20270;-74
2022/03/27 12:20:44;;;;;;;26.63;13.67;;;;;;;;;;5110558;28;20627;-75
2022/03/27 12:23:25;;;;;;;25.23;13.60;;;;;;;;;;5118482;28;20743;-73
2022/03/27 12:26:01;;;;;;;28.00;14.40;;;;;;;;;;5113104;28;20217;-72
2022/03/27 12:31:23;;;;;;;26.60;15.10;;;;;;;;;;5112562;28;20205;-73
2022/03/27 12:33:52;;;;;;;31.03;14.57;;;;;;;;;;5107347;28;20229;-74
2022/03/27 12:36:22;;;;;;;22.07;13.93;;;;;;;;;;5107999;28;20225;-74
2022/03/27 12:38:50;;;;;;;27.90;14.07;;;;;;;;;;5101827;28;20205;-74
2022/03/27 12:41:32;;;;;;;24.00;14.60;;;;;;;;;;5109609;28;20231;-73
2022/03/27 12:44:01;;;;;;;27.40;15.30;;;;;;;;;;5107093;28;20260;-74
2022/03/27 12:46:31;;;;;;;32.90;15.83;;;;;;;;;;5112868;28;20252;-74
2022/03/27 12:49:01;;;;;;;27.90;15.33;;;;;;;;;;5106035;28;20227;-74
2022/03/27 12:51:29;;;;;;;29.40;15.57;;;;;;;;;;5107116;28;20205;-74
2022/03/27 12:54:07;;;;;;;26.27;14.40;;;;;;;;;;5098907;28;20232;-74
2022/03/27 12:56:55;;;;;;;30.40;15.70;;;;;;;;;;5102033;28;20212;-74
2022/03/27 12:59:23;;;;;;;28.33;15.43;;;;;;;;;;5105386;28;20255;-74
2022/03/27 13:01:53;;;;;;;27.43;15.17;;;;;;;;;;5102230;28;20236;-74
2022/03/27 13:04:21;;;;;;;26.30;15.50;;;;;;;;;;5101489;28;20205;-73
2022/03/27 13:06:58;;;;;;;22.80;13.83;;;;;;;;;;5116488;28;20315;-74
2022/03/27 13:09:28;;;;;;;31.37;15.57;;;;;;;;;;5113473;28;20251;-74
2022/03/27 13:11:56;;;;;;;25.67;15.10;;;;;;;;;;5103714;28;20233;-74
2022/03/27 13:14:26;;;;;;;27.97;15.10;;;;;;;;;;5106975;28;20256;-74
2022/03/27 13:16:58;;;;;;;22.77;15.23;;;;;;;;;;5109765;28;20247;-74
2022/03/27 13:19:41;;;;;;;29.93;14.60;;;;;;;;;;5116808;28;20224;-74
2022/03/27 13:22:09;;;;;;;26.33;14.30;;;;;;;;;;5103008;28;20277;-74
2022/03/27 13:24:37;;;;;;;24.60;14.93;;;;;;;;;;5107001;28;20193;-74
2022/03/27 13:27:07;;;;;;;25.40;14.80;;;;;;;;;;5110116;28;20802;-74
2022/03/27 13:29:36;;;;;;;24.53;14.90;;;;;;;;;;5117681;28;20252;-73
2022/03/27 13:32:07;;;;;;;28.03;15.07;;;;;;;;;;5115187;28;20204;-74
2022/03/27 13:34:37;;;;;;;25.93;14.47;;;;;;;;;;5115568;28;20284;-74
2022/03/27 13:37:05;;;;;;;25.40;13.70;;;;;;;;;;5116558;28;20225;-74
2022/03/27 13:39:33;;;;;;;27.17;13.93;;;;;;;;;;5112634;28;20272;-73
2022/03/27 13:44:47;;;;;;;22.77;13.90;;;;;;;;;;5117650;28;20540;-74
2022/03/27 13:47:17;;;;;;;24.43;13.90;;;;;;;;;;5111545;28;20307;-74
2022/03/27 13:49:45;;;;;;;23.30;13.73;;;;;;;;;;5103835;28;20217;-74
2022/03/27 13:52:13;;;;;;;28.13;14.90;;;;;;;;;;5103175;28;20204;-73
2022/03/27 13:54:41;;;;;;;27.43;14.83;;;;;;;;;;5106103;28;20240;-73
2022/03/27 13:57:10;;;;;;;24.17;14.13;;;;;;;;;;5110551;28;20354;-73
2022/03/27 13:59:38;;;;;;;23.07;13.33;;;;;;;;;;5106022;28;20268;-74
2022/03/27 14:02:08;;;;;;;26.60;14.13;;;;;;;;;;5111253;28;20747;-74
2022/03/27 14:04:39;;;;;;;24.10;14.17;;;;;;;;;;5105074;28;20204;-74
2022/03/27 14:07:07;;;;;;;23.17;13.43;;;;;;;;;;5108930;28;20252;-73
2022/03/27 14:09:35;;;;;;;28.10;13.87;;;;;;;;;;5101040;28;20218;-74
2022/03/27 14:12:04;;;;;;;25.73;13.93;;;;;;;;;;5110648;28;20411;-73
2022/03/27 14:14:32;;;;;;;25.13;13.70;;;;;;;;;;5109488;28;20229;-74
2022/03/27 14:17:01;;;;;;;22.57;14.10;;;;;;;;;;5108586;28;20275;-74
2022/03/27 14:19:29;;;;;;;22.80;13.87;;;;;;;;;;5111072;28;20311;-74
2022/03/27 14:22:01;;;;;;;24.50;14.03;;;;;;;;;;5110322;28;20229;-74
2022/03/27 14:24:29;;;;;;;22.87;14.03;;;;;;;;;;5115155;28;20197;-74
2022/03/27 14:26:57;;;;;;;23.47;13.13;;;;;;;;;;5116472;28;20216;-74
2022/03/27 14:29:25;;;;;;;24.13;13.53;;;;;;;;;;5108187;28;20256;-74
2022/03/27 14:31:53;;;;;;;23.33;13.40;;;;;;;;;;5117065;28;20236;-73
2022/03/27 14:34:21;;;;;;;17.67;13.03;;;;;;;;;;5112034;28;20628;-74
2022/03/27 14:36:50;;;;;;;20.93;12.50;;;;;;;;;;5110468;28;20249;-74
2022/03/27 14:39:20;;;;;;;25.20;13.73;;;;;;;;;;5116605;28;20204;-74
2022/03/27 14:41:48;;;;;;;21.47;12.33;;;;;;;;;;5108684;28;20196;-74
2022/03/27 14:44:16;;;;;;;19.90;11.57;;;;;;;;;;5116870;28;20228;-74